High Peak, United Kingdom
Current Conditions -  °F | °C
As of 1:20 PM on Monday 22 Dec 2014 (Local Time) from EGCC Reporting Station
Rain Showers Rain Showers  
Wind Chill: 55°   Ceiling: 3600
Heat Index: 55°   Visibility: 6mi
Dew Point: 48°   Wind: 23mph
Humidity: 77%   Direction: 240°WSW
Pressure: 29.83"   Gusts: 35mph
Location:  53.38°N, 1.97°W
Report Text: EGCC 221320Z 24020G30KT 9999 VCSH FEW020 BKN036 13/09 Q1010
Loading
Personal Weather Stations






























Interactive Weather Map New forecast layout! Learn more

10-Day Weather Forecast

Advertisements
Track Severe Weather on mobile